Time;durP1;ratioP1;P1;durP2;ratioP2;P2;SDS_P1;SDS_P2;PMS_P1;PMS_P2;Temp;Humidity;BMP_temperature;BMP_pressure;BME280_temperature;BME280_humidity;BME280_pressure;Samples;Min_cycle;Max_cycle;Signal;HPM_P1;HPM_P2
2023/01/21 00:01:35;;;;;;;4.30;3.90;;;16.20;64.30;;;;;;5013178;28;20260;-64
2023/01/21 00:04:23;;;;;;;6.18;5.40;;;16.20;64.00;;;;;;5012291;28;20317;-63
2023/01/21 00:07:11;;;;;;;4.55;4.00;;;16.20;62.80;;;;;;5013111;28;20198;-63
2023/01/21 00:10:01;;;;;;;5.43;4.00;;;16.20;63.80;;;;;;5012781;28;20269;-62
2023/01/21 00:12:49;;;;;;;4.90;3.70;;;16.10;63.80;;;;;;5013044;28;20198;-62
2023/01/21 00:15:37;;;;;;;5.00;4.28;;;16.10;63.80;;;;;;5012381;28;20333;-63
2023/01/21 00:18:25;;;;;;;4.82;4.15;;;16.00;64.30;;;;;;5012977;28;20265;-65
2023/01/21 00:21:16;;;;;;;4.65;3.90;;;15.90;64.40;;;;;;5012746;28;20675;-63
2023/01/21 00:24:05;;;;;;;4.70;3.78;;;15.80;64.50;;;;;;5012655;28;20698;-64
2023/01/21 00:26:54;;;;;;;6.13;4.28;;;15.70;64.80;;;;;;5012238;28;20675;-65
2023/01/21 00:29:42;;;;;;;4.25;3.72;;;15.70;64.90;;;;;;5012423;28;20250;-64
2023/01/21 00:32:30;;;;;;;4.68;4.00;;;15.80;65.00;;;;;;5012519;28;20261;-64
2023/01/21 00:35:18;;;;;;;4.28;3.88;;;15.80;64.90;;;;;;5012670;28;20203;-63
2023/01/21 00:38:06;;;;;;;5.10;4.10;;;15.90;64.90;;;;;;5012569;28;20201;-63
2023/01/21 00:40:59;;;;;;;4.00;3.55;;;15.90;64.80;;;;;;5012024;28;20304;-62
2023/01/21 00:43:49;;;;;;;6.88;3.85;;;16.00;64.90;;;;;;5011924;28;20297;-65
2023/01/21 00:46:37;;;;;;;4.45;3.35;;;16.00;64.70;;;;;;5012584;28;20322;-65
2023/01/21 00:49:25;;;;;;;5.25;3.65;;;16.00;64.70;;;;;;5011937;28;20222;-64
2023/01/21 00:52:13;;;;;;;4.45;3.35;;;16.10;64.50;;;;;;5012375;28;20277;-64
2023/01/21 00:55:01;;;;;;;5.22;3.60;;;16.10;64.20;;;;;;5011846;28;20653;-65
2023/01/21 00:57:51;;;;;;;4.40;3.42;;;16.20;64.30;;;;;;5025092;28;20206;-64
2023/01/21 01:00:41;;;;;;;3.75;3.45;;;16.10;63.90;;;;;;5030898;28;20229;-64
2023/01/21 01:03:29;;;;;;;4.72;3.90;;;16.20;64.10;;;;;;5031397;28;20209;-65
2023/01/21 01:06:19;;;;;;;4.22;3.03;;;16.20;64.00;;;;;;5031354;28;20197;-64
2023/01/21 01:09:07;;;;;;;4.65;3.58;;;16.10;72.10;;;;;;5031198;28;20205;-64
2023/01/21 01:11:55;;;;;;;3.28;2.80;;;16.20;64.10;;;;;;5031464;28;20628;-65
2023/01/21 01:14:43;;;;;;;4.70;3.03;;;16.20;64.00;;;;;;5031314;28;20273;-63
2023/01/21 01:17:32;;;;;;;2.97;2.78;;;16.20;64.00;;;;;;5031305;28;20715;-64
2023/01/21 01:20:20;;;;;;;4.50;3.60;;;16.20;63.90;;;;;;5030787;28;20271;-64
2023/01/21 01:23:09;;;;;;;6.13;3.33;;;16.20;63.70;;;;;;5031161;28;20193;-64
2023/01/21 01:25:58;;;;;;;4.25;3.22;;;16.20;63.50;;;;;;5031115;28;20202;-64
2023/01/21 01:28:47;;;;;;;3.25;2.95;;;16.10;63.10;;;;;;5030951;28;20586;-64
2023/01/21 01:31:35;;;;;;;2.97;2.75;;;16.10;62.90;;;;;;5031095;28;20277;-64
2023/01/21 01:34:24;;;;;;;3.05;2.75;;;16.00;63.50;;;;;;5031177;28;20234;-62
2023/01/21 01:37:13;;;;;;;3.38;3.08;;;16.00;64.30;;;;;;5030851;28;20332;-60
2023/01/21 01:40:01;;;;;;;3.38;2.78;;;15.90;64.30;;;;;;5030635;28;20308;-62
2023/01/21 01:42:49;;;;;;;5.10;3.17;;;15.70;64.30;;;;;;5031023;28;20202;-64
2023/01/21 01:45:37;;;;;;;3.67;2.83;;;15.70;64.50;;;;;;5030768;28;20214;-64
2023/01/21 01:48:28;;;;;;;2.75;2.55;;;15.70;64.80;;;;;;5031008;28;20233;-64
2023/01/21 01:51:21;;;;;;;3.13;2.58;;;15.70;64.90;;;;;;5030138;28;20281;-65
2023/01/21 01:54:12;;;;;;;6.00;2.92;;;15.80;64.90;;;;;;5030330;28;20198;-63
2023/01/21 01:57:02;;;;;;;2.95;2.70;;;15.80;64.80;;;;;;5030858;28;20586;-62
2023/01/21 01:59:51;;;;;;;2.88;2.55;;;15.90;64.70;;;;;;5030972;28;20307;-62
2023/01/21 02:02:40;;;;;;;4.32;3.38;;;15.90;64.50;;;;;;5031563;28;20212;-65
2023/01/21 02:05:29;;;;;;;3.28;2.65;;;16.00;64.40;;;;;;5031225;28;20221;-62
2023/01/21 02:08:19;;;;;;;3.88;3.00;;;16.00;64.30;;;;;;5030033;28;20234;-62
2023/01/21 02:11:11;;;;;;;3.22;2.92;;;16.00;64.30;;;;;;5031037;28;20785;-64
2023/01/21 02:14:00;;;;;;;3.92;2.55;;;16.10;64.10;;;;;;5031321;28;20202;-64
2023/01/21 02:17:06;;;;;;;4.85;2.40;;;16.10;63.90;;;;;;5031085;28;20684;-65
2023/01/21 02:20:24;;;;;;;6.05;2.97;;;16.10;64.00;;;;;;5029693;28;20701;-64
2023/01/21 02:23:19;;;;;;;2.90;2.20;;;16.10;63.80;;;;;;5031111;28;20284;-62
2023/01/21 02:26:47;;;;;;;3.17;2.88;;;16.20;63.90;;;;;;5031096;28;20305;-65
2023/01/21 02:30:04;;;;;;;2.90;2.50;;;16.20;63.90;;;;;;5032815;28;20226;-62
2023/01/21 02:33:14;;;;;;;2.78;2.55;;;16.20;64.00;;;;;;5028629;28;20683;-64
2023/01/21 02:36:14;;;;;;;5.20;3.33;;;16.20;63.70;;;;;;5034035;28;20241;-65
2023/01/21 02:39:12;;;;;;;3.17;2.47;;;16.50;71.50;;;;;;5033633;28;20291;-64
2023/01/21 02:42:05;;;;;;;2.55;2.35;;;16.30;63.90;;;;;;5033930;28;20683;-63
2023/01/21 02:45:00;;;;;;;2.80;2.50;;;16.30;63.80;;;;;;5033815;28;20340;-63
2023/01/21 02:47:54;;;;;;;3.35;2.53;;;16.20;63.50;;;;;;5033754;28;20202;-65
2023/01/21 02:50:46;;;;;;;3.00;2.70;;;16.20;63.20;;;;;;5032707;28;20225;-65
2023/01/21 02:53:35;;;;;;;2.72;2.15;;;16.10;63.60;;;;;;5033624;28;20503;-63
2023/01/21 02:56:26;;;;;;;2.40;2.13;;;16.00;63.80;;;;;;5033554;28;20606;-61
2023/01/21 02:59:14;;;;;;;3.88;2.67;;;15.90;64.20;;;;;;5033764;28;20233;-61
2023/01/21 03:02:12;;;;;;;2.42;2.10;;;15.80;64.20;;;;;;5034018;28;20325;-61
2023/01/21 03:05:10;;;;;;;4.13;2.83;;;15.70;64.40;;;;;;5034018;28;20210;-65
2023/01/21 03:08:06;;;;;;;2.63;2.40;;;15.70;64.50;;;;;;5033853;28;20206;-62
2023/01/21 03:10:59;;;;;;;3.05;2.20;;;15.70;64.50;;;;;;5033717;28;20304;-64
2023/01/21 03:17:04;;;;;;;3.40;2.10;;;15.80;64.50;;;;;;5033234;28;20609;-61
2023/01/21 03:20:00;;;;;;;4.07;2.50;;;15.80;64.30;;;;;;5033488;28;20226;-60
2023/01/21 03:22:52;;;;;;;3.17;2.65;;;15.90;64.20;;;;;;5033520;28;20687;-61
2023/01/21 03:25:42;;;;;;;3.03;2.20;;;15.90;64.20;;;;;;5033615;28;20766;-64
2023/01/21 03:28:34;;;;;;;2.97;2.03;;;16.00;64.20;;;;;;5033616;28;20206;-62
2023/01/21 03:31:27;;;;;;;3.03;2.20;;;16.00;64.00;;;;;;5033376;28;20210;-64
2023/01/21 03:34:18;;;;;;;3.80;2.30;;;15.90;63.80;;;;;;5033867;28;20201;-66
2023/01/21 03:37:09;;;;;;;2.38;2.17;;;16.00;63.90;;;;;;5033406;28;20302;-60
2023/01/21 03:40:08;;;;;;;2.60;2.40;;;16.00;63.80;;;;;;5031942;28;20221;-63
2023/01/21 03:42:58;;;;;;;2.95;1.92;;;16.00;63.80;;;;;;5033377;28;20738;-63
2023/01/21 03:45:50;;;;;;;3.40;2.13;;;16.00;63.80;;;;;;5033073;28;21067;-66
2023/01/21 03:48:43;;;;;;;3.20;1.95;;;16.00;63.80;;;;;;5033244;28;20693;-65
2023/01/21 03:51:35;;;;;;;2.08;1.98;;;16.00;63.80;;;;;;5032966;28;20198;-61
2023/01/21 03:54:24;;;;;;;3.13;2.28;;;16.00;64.00;;;;;;5033127;28;20248;-61
2023/01/21 03:57:12;;;;;;;2.42;2.00;;;16.00;63.90;;;;;;5033044;28;20222;-62
2023/01/21 04:00:01;;;;;;;2.22;2.05;;;16.10;63.80;;;;;;5032006;28;20439;-63
2023/01/21 04:02:49;;;;;;;3.40;1.90;;;16.00;63.70;;;;;;5032463;28;20206;-63
2023/01/21 04:05:37;;;;;;;4.10;2.30;;;16.10;63.80;;;;;;5032273;28;20296;-63
2023/01/21 04:08:25;;;;;;;2.75;2.03;;;16.10;63.70;;;;;;5032333;28;20726;-65
2023/01/21 04:11:13;;;;;;;1.83;1.73;;;16.00;63.80;;;;;;5032063;28;20248;-64
2023/01/21 04:14:01;;;;;;;2.80;2.05;;;16.00;64.40;;;;;;5032309;28;20740;-61
2023/01/21 04:16:50;;;;;;;2.17;1.90;;;15.80;63.80;;;;;;5031937;28;20206;-62
2023/01/21 04:19:39;;;;;;;2.55;2.05;;;15.80;64.20;;;;;;5031811;28;20635;-66
2023/01/21 04:22:27;;;;;;;2.45;2.17;;;15.70;64.30;;;;;;5032011;28;20198;-66
2023/01/21 04:25:15;;;;;;;2.40;2.20;;;15.70;64.40;;;;;;5031748;28;20242;-62
2023/01/21 04:28:03;;;;;;;2.20;2.00;;;15.70;64.40;;;;;;5031589;28;20222;-62
2023/01/21 04:30:51;;;;;;;3.05;2.30;;;15.70;64.40;;;;;;5031662;28;20712;-66
2023/01/21 04:33:41;;;;;;;2.22;2.03;;;15.70;64.40;;;;;;5032204;28;20299;-65
2023/01/21 04:36:29;;;;;;;4.93;2.47;;;15.70;64.20;;;;;;5031258;28;20193;-63
2023/01/21 04:39:17;;;;;;;2.85;2.47;;;15.80;64.20;;;;;;5031406;28;20297;-64
2023/01/21 04:42:06;;;;;;;3.78;2.17;;;15.70;63.80;;;;;;5031623;28;20679;-62
2023/01/21 04:44:54;;;;;;;3.53;2.00;;;15.80;63.90;;;;;;5031632;28;20289;-65
2023/01/21 04:47:42;;;;;;;2.08;1.70;;;15.80;63.80;;;;;;5031552;28;20284;-62
2023/01/21 04:50:32;;;;;;;2.15;1.98;;;15.80;63.80;;;;;;5030381;28;20272;-65
2023/01/21 04:53:20;;;;;;;2.95;2.28;;;15.80;63.80;;;;;;5031584;28;20285;-65
2023/01/21 04:56:08;;;;;;;3.60;2.08;;;15.80;63.80;;;;;;5031486;28;20198;-62
2023/01/21 04:58:56;;;;;;;2.35;1.88;;;15.80;65.70;;;;;;5011708;28;20199;-65
2023/01/21 05:01:44;;;;;;;1.70;1.60;;;15.80;63.80;;;;;;5011739;28;20285;-65
2023/01/21 05:04:32;;;;;;;2.83;1.90;;;15.90;64.00;;;;;;5011675;28;20302;-62
2023/01/21 05:07:22;;;;;;;2.40;2.10;;;15.90;63.90;;;;;;5011718;28;20254;-62
2023/01/21 05:10:14;;;;;;;2.45;1.67;;;16.00;63.80;;;;;;5011230;28;20254;-61
2023/01/21 05:13:03;;;;;;;3.25;1.80;;;16.00;63.80;;;;;;5011560;28;20281;-64
2023/01/21 05:15:51;;;;;;;2.83;2.13;;;15.90;63.40;;;;;;5011622;28;20294;-64
2023/01/21 05:18:40;;;;;;;2.63;2.25;;;15.90;63.70;;;;;;5011403;28;20584;-60
2023/01/21 05:21:28;;;;;;;2.58;2.33;;;15.90;63.80;;;;;;5011796;28;20257;-63
2023/01/21 05:24:17;;;;;;;2.28;2.05;;;15.80;63.90;;;;;;5011563;28;20210;-63
2023/01/21 05:27:05;;;;;;;2.30;2.10;;;15.70;63.90;;;;;;5011978;28;20214;-60
2023/01/21 05:29:55;;;;;;;4.65;2.47;;;15.60;63.90;;;;;;5011404;28;20270;-59
2023/01/21 05:32:43;;;;;;;2.65;2.10;;;15.50;64.20;;;;;;5012530;28;20203;-62
2023/01/21 05:35:34;;;;;;;3.53;1.95;;;15.50;64.20;;;;;;5012571;28;20277;-64
2023/01/21 05:38:23;;;;;;;2.42;2.00;;;15.60;64.30;;;;;;5011461;28;20648;-60
2023/01/21 05:41:12;;;;;;;2.13;1.58;;;15.60;64.40;;;;;;5010997;28;20321;-62
2023/01/21 05:44:00;;;;;;;2.83;2.00;;;15.70;64.50;;;;;;5011315;28;20207;-64
2023/01/21 05:46:48;;;;;;;2.10;1.77;;;15.80;64.50;;;;;;5011835;28;20257;-62
2023/01/21 05:49:36;;;;;;;2.03;1.73;;;15.80;64.20;;;;;;5010904;28;20748;-64
2023/01/21 05:52:24;;;;;;;1.73;1.60;;;15.90;64.10;;;;;;5011251;28;20238;-58
2023/01/21 05:55:12;;;;;;;2.25;2.05;;;15.90;63.80;;;;;;5011120;28;20226;-63
2023/01/21 05:58:02;;;;;;;3.28;2.10;;;15.90;63.50;;;;;;5026425;28;20283;-64
2023/01/21 06:00:50;;;;;;;1.63;1.52;;;15.90;63.50;;;;;;5030322;28;20288;-65
2023/01/21 06:03:38;;;;;;;2.78;1.80;;;16.00;63.60;;;;;;5033996;28;20229;-64
2023/01/21 06:06:26;;;;;;;1.92;1.77;;;16.00;63.60;;;;;;5034495;28;20218;-63
2023/01/21 06:09:14;;;;;;;3.65;2.63;;;15.90;63.50;;;;;;5034136;28;20297;-66
2023/01/21 06:12:02;;;;;;;2.53;1.85;;;15.90;63.60;;;;;;5034512;28;20212;-65
2023/01/21 06:14:51;;;;;;;1.95;1.63;;;15.90;63.60;;;;;;5034478;28;20233;-62
2023/01/21 06:17:40;;;;;;;2.03;1.67;;;16.00;63.70;;;;;;5034293;28;20205;-64
2023/01/21 06:20:29;;;;;;;3.78;2.00;;;16.00;63.80;;;;;;5034119;28;20772;-63
2023/01/21 06:23:17;;;;;;;1.80;1.70;;;15.90;63.70;;;;;;5034604;28;20205;-64
2023/01/21 06:26:05;;;;;;;1.92;1.83;;;15.90;63.70;;;;;;5034038;28;20760;-62
2023/01/21 06:28:55;;;;;;;4.30;2.20;;;16.00;65.40;;;;;;5034138;28;20202;-64
2023/01/21 06:31:44;;;;;;;2.53;1.95;;;15.90;63.50;;;;;;5034200;28;20248;-63
2023/01/21 06:34:33;;;;;;;2.38;1.88;;;15.90;63.40;;;;;;5034460;28;20690;-63
2023/01/21 06:37:21;;;;;;;2.25;1.55;;;15.90;63.60;;;;;;5034006;28;20222;-65
2023/01/21 06:40:10;;;;;;;2.20;2.00;;;15.80;63.80;;;;;;5033647;28;20272;-62
2023/01/21 06:42:58;;;;;;;2.50;1.70;;;15.70;63.30;;;;;;5033943;28;20696;-62
2023/01/21 06:45:46;;;;;;;6.47;2.05;;;15.60;64.20;;;;;;5034020;28;20260;-62
2023/01/21 06:48:36;;;;;;;1.75;1.65;;;15.50;64.30;;;;;;5034009;28;20276;-62
2023/01/21 06:51:24;;;;;;;2.47;1.70;;;15.50;64.50;;;;;;5033692;28;20691;-65
2023/01/21 06:54:12;;;;;;;2.05;1.95;;;15.50;64.50;;;;;;5033868;28;20234;-60
2023/01/21 06:57:01;;;;;;;2.55;1.98;;;15.60;64.50;;;;;;5033603;28;20245;-63
2023/01/21 06:59:49;;;;;;;1.65;1.55;;;15.60;64.40;;;;;;5033754;28;20706;-62
2023/01/21 07:02:37;;;;;;;2.88;1.85;;;15.70;64.40;;;;;;5033916;28;20623;-63
2023/01/21 07:05:27;;;;;;;1.88;1.50;;;15.80;64.50;;;;;;5033667;28;20502;-63
2023/01/21 07:08:15;;;;;;;1.67;1.40;;;15.80;64.50;;;;;;5033460;28;20324;-62
2023/01/21 07:11:03;;;;;;;3.08;2.25;;;15.70;64.00;;;;;;5033166;28;20265;-63
2023/01/21 07:13:51;;;;;;;2.03;1.83;;;15.90;63.90;;;;;;5033517;28;20244;-64
2023/01/21 07:16:39;;;;;;;1.73;1.63;;;15.90;63.90;;;;;;5033207;28;20194;-63
2023/01/21 07:19:27;;;;;;;1.60;1.42;;;16.00;63.80;;;;;;5032842;28;20264;-63
2023/01/21 07:22:17;;;;;;;2.28;1.85;;;15.90;63.60;;;;;;5033003;28;20280;-62
2023/01/21 07:25:06;;;;;;;3.55;1.90;;;16.00;63.70;;;;;;5033307;28;20205;-64
2023/01/21 07:27:54;;;;;;;2.55;2.10;;;16.00;63.60;;;;;;5032985;28;20708;-61
2023/01/21 07:30:42;;;;;;;1.70;1.60;;;15.90;63.60;;;;;;5032501;28;20214;-64
2023/01/21 07:33:30;;;;;;;1.90;1.80;;;16.00;63.80;;;;;;5033059;28;20210;-62
2023/01/21 07:36:18;;;;;;;2.08;1.88;;;15.90;64.40;;;;;;5032899;28;20351;-62
2023/01/21 07:39:07;;;;;;;2.72;2.20;;;16.00;71.30;;;;;;5032481;28;20675;-62
2023/01/21 07:41:55;;;;;;;1.90;1.80;;;15.90;63.80;;;;;;5032835;28;20277;-59
2023/01/21 07:44:43;;;;;;;1.83;1.52;;;15.90;63.80;;;;;;5032869;28;20300;-65
2023/01/21 07:47:31;;;;;;;1.60;1.38;;;15.90;63.90;;;;;;5032635;28;20304;-63
2023/01/21 07:50:19;;;;;;;2.22;1.75;;;16.00;63.90;;;;;;5032342;28;20758;-63
2023/01/21 07:53:07;;;;;;;2.58;1.60;;;15.90;63.80;;;;;;5032562;28;20206;-65
2023/01/21 07:55:57;;;;;;;1.77;1.55;;;15.90;63.80;;;;;;5032808;28;20253;-64
2023/01/21 07:58:45;;;;;;;2.65;1.98;;;15.80;63.90;;;;;;5013367;28;20703;-61
2023/01/21 08:01:33;;;;;;;2.88;1.77;;;15.80;64.00;;;;;;5012474;28;20199;-64
2023/01/21 08:04:22;;;;;;;2.10;1.60;;;15.60;64.10;;;;;;5011922;28;20243;-64
2023/01/21 08:07:10;;;;;;;2.15;1.92;;;15.60;64.40;;;;;;5011807;28;20302;-61
2023/01/21 08:10:00;;;;;;;1.40;1.30;;;15.50;64.50;;;;;;5011853;28;20227;-60
2023/01/21 08:12:49;;;;;;;2.05;1.52;;;15.60;64.80;;;;;;5012074;28;20205;-61
2023/01/21 08:15:37;;;;;;;3.72;1.65;;;15.60;64.70;;;;;;5011898;28;20797;-62
2023/01/21 08:18:25;;;;;;;1.75;1.63;;;15.60;64.90;;;;;;5012659;28;20281;-60
2023/01/21 08:21:13;;;;;;;1.95;1.70;;;15.70;64.60;;;;;;5012135;28;20262;-62
2023/01/21 08:24:01;;;;;;;1.70;1.50;;;15.80;64.50;;;;;;5011864;28;20209;-64
2023/01/21 08:26:49;;;;;;;2.08;1.98;;;15.80;64.50;;;;;;5011405;28;20623;-61
2023/01/21 08:29:39;;;;;;;1.73;1.63;;;16.00;64.40;;;;;;5011443;28;20218;-61
2023/01/21 08:32:29;;;;;;;2.72;1.80;;;16.00;64.20;;;;;;5011546;28;20261;-61
2023/01/21 08:35:17;;;;;;;3.00;2.08;;;16.00;63.90;;;;;;5012024;28;20292;-62
2023/01/21 08:38:06;;;;;;;2.33;1.92;;;16.00;63.80;;;;;;5012075;28;20237;-61
2023/01/21 08:40:55;;;;;;;2.78;1.85;;;16.00;63.70;;;;;;5011150;28;20246;-62
2023/01/21 08:43:43;;;;;;;2.75;1.73;;;16.00;63.70;;;;;;5011371;28;20284;-64
2023/01/21 08:46:33;;;;;;;3.35;1.80;;;16.00;63.70;;;;;;5011592;28;20701;-60
2023/01/21 08:49:21;;;;;;;2.70;2.40;;;16.00;63.70;;;;;;5010844;28;20301;-62
2023/01/21 08:52:09;;;;;;;2.55;2.17;;;16.00;63.70;;;;;;5011374;28;20203;-60
2023/01/21 08:54:57;;;;;;;2.33;1.95;;;16.00;63.80;;;;;;5011627;28;20589;-62
2023/01/21 08:57:47;;;;;;;2.60;1.90;;;16.00;63.90;;;;;;5024628;28;20272;-64
2023/01/21 09:00:35;;;;;;;2.70;2.15;;;16.00;63.90;;;;;;5030962;28;20646;-62
2023/01/21 09:03:25;;;;;;;1.98;1.85;;;16.00;64.00;;;;;;5031533;28;20212;-62
2023/01/21 09:06:13;;;;;;;3.03;2.22;;;16.00;64.00;;;;;;5030689;28;20281;-59
2023/01/21 09:09:01;;;;;;;2.30;1.65;;;16.10;71.40;;;;;;5031186;28;20304;-60
2023/01/21 09:11:49;;;;;;;2.20;2.00;;;15.90;63.90;;;;;;5031995;28;20234;-61
2023/01/21 09:14:37;;;;;;;2.10;1.98;;;15.90;63.90;;;;;;5031223;28;20230;-61
2023/01/21 09:17:25;;;;;;;2.53;1.95;;;15.90;64.00;;;;;;5031296;28;20332;-62
2023/01/21 09:20:14;;;;;;;3.08;2.20;;;15.80;64.10;;;;;;5030867;28;20222;-62
2023/01/21 09:23:22;;;;;;;2.38;2.10;;;15.70;64.30;;;;;;5030735;28;20284;-60
2023/01/21 09:26:15;;;;;;;2.47;2.08;;;15.60;64.40;;;;;;5031117;28;20208;-60
2023/01/21 09:29:03;;;;;;;1.90;1.70;;;15.90;71.80;;;;;;5031936;28;20299;-60
2023/01/21 09:31:51;;;;;;;2.83;2.13;;;15.70;64.70;;;;;;5031167;28;20281;-59
2023/01/21 09:34:39;;;;;;;2.58;2.35;;;15.70;64.50;;;;;;5031103;28;20575;-60
2023/01/21 09:37:28;;;;;;;2.60;2.30;;;15.80;64.30;;;;;;5034171;28;20229;-60
2023/01/21 09:40:17;;;;;;;2.53;2.30;;;15.80;64.40;;;;;;5034857;28;20322;-59
2023/01/21 09:43:20;;;;;;;3.47;2.40;;;15.90;64.40;;;;;;5034604;28;20675;-60
2023/01/21 09:46:17;;;;;;;3.75;2.10;;;15.90;64.40;;;;;;5034905;28;20272;-63
2023/01/21 09:49:11;;;;;;;2.72;2.40;;;15.80;71.00;;;;;;5034653;28;20703;-62
2023/01/21 09:52:08;;;;;;;2.38;2.17;;;16.00;64.00;;;;;;5034997;28;20290;-61
2023/01/21 09:54:58;;;;;;;2.65;2.20;;;16.00;63.80;;;;;;5035009;28;20771;-62
2023/01/21 09:58:10;;;;;;;3.40;2.40;;;16.00;63.80;;;;;;5034671;28;20311;-62
2023/01/21 10:01:03;;;;;;;4.05;2.83;;;16.00;63.70;;;;;;5034961;28;20600;-60
2023/01/21 10:03:55;;;;;;;2.50;2.30;;;16.10;63.80;;;;;;5035288;28;20202;-59
2023/01/21 10:06:48;;;;;;;3.30;2.45;;;16.10;63.80;;;;;;5035151;28;20209;-62
2023/01/21 10:09:52;;;;;;;3.45;2.30;;;16.00;63.70;;;;;;5034774;28;20299;-59
2023/01/21 10:13:03;;;;;;;3.30;2.35;;;16.00;63.80;;;;;;5035136;28;20286;-60
2023/01/21 10:16:03;;;;;;;3.03;2.15;;;16.00;63.90;;;;;;5035022;28;20280;-61
2023/01/21 10:18:55;;;;;;;2.90;2.55;;;16.10;65.80;;;;;;5035005;28;20234;-62
2023/01/21 10:21:48;;;;;;;4.22;2.78;;;16.00;64.00;;;;;;5034362;28;20202;-59
2023/01/21 10:24:44;;;;;;;2.28;2.08;;;16.00;64.00;;;;;;5034979;28;20671;-61
2023/01/21 10:27:37;;;;;;;2.75;2.30;;;16.00;64.00;;;;;;5034804;28;20205;-62
2023/01/21 10:30:29;;;;;;;3.58;2.42;;;16.00;63.90;;;;;;5034512;28;20605;-60
2023/01/21 10:33:20;;;;;;;2.50;2.33;;;15.90;63.90;;;;;;5033938;28;20671;-60
2023/01/21 10:36:40;;;;;;;3.17;2.88;;;15.90;64.00;;;;;;5034477;28;20205;-63
2023/01/21 10:39:43;;;;;;;3.15;2.67;;;15.70;64.00;;;;;;5034269;28;20214;-62
2023/01/21 10:42:46;;;;;;;3.90;2.95;;;15.60;64.40;;;;;;5034830;28;20287;-59
2023/01/21 10:45:45;;;;;;;3.22;2.58;;;15.60;64.40;;;;;;5034608;28;20577;-60
2023/01/21 10:48:40;;;;;;;2.83;2.53;;;15.60;64.70;;;;;;5033573;28;20360;-60
2023/01/21 10:51:34;;;;;;;2.85;2.58;;;15.70;64.50;;;;;;5034242;28;20683;-65
2023/01/21 10:54:35;;;;;;;3.80;2.92;;;15.70;64.50;;;;;;5034368;28;20732;-59
2023/01/21 10:57:49;;;;;;;3.45;2.95;;;15.80;64.20;;;;;;5034202;28;20726;-63
2023/01/21 11:00:43;;;;;;;2.92;2.58;;;15.90;64.10;;;;;;5033199;28;20626;-63
2023/01/21 11:03:37;;;;;;;3.20;2.88;;;15.90;64.20;;;;;;5033658;28;20206;-59
2023/01/21 11:06:29;;;;;;;5.40;3.10;;;15.90;64.10;;;;;;5033874;28;20198;-62
2023/01/21 11:09:17;;;;;;;3.30;2.95;;;15.90;63.80;;;;;;5032953;28;20719;-63
2023/01/21 11:12:05;;;;;;;4.15;2.83;;;16.00;64.00;;;;;;5033466;28;20230;-64
2023/01/21 11:14:56;;;;;;;4.82;3.33;;;16.00;63.90;;;;;;5033505;28;20210;-59
2023/01/21 11:17:47;;;;;;;3.67;2.65;;;16.00;63.80;;;;;;5033163;28;20210;-60
2023/01/21 11:20:40;;;;;;;3.33;2.45;;;16.00;63.70;;;;;;5033637;28;20253;-65
2023/01/21 11:23:30;;;;;;;2.67;2.25;;;16.00;63.80;;;;;;5033359;28;20201;-62
2023/01/21 11:26:23;;;;;;;4.32;2.78;;;16.00;63.80;;;;;;5033144;28;20204;-61
2023/01/21 11:29:14;;;;;;;6.47;3.20;;;16.00;63.90;;;;;;5032807;28;20226;-59
2023/01/21 11:32:04;;;;;;;4.65;3.03;;;16.00;63.90;;;;;;5033275;28;20205;-62
2023/01/21 11:35:02;;;;;;;3.08;2.78;;;16.00;64.00;;;;;;5034531;28;20280;-65
2023/01/21 11:37:50;;;;;;;2.83;2.63;;;16.00;64.00;;;;;;5033829;28;20242;-64
2023/01/21 11:40:38;;;;;;;2.80;2.38;;;16.00;63.90;;;;;;5033114;28;20225;-62
2023/01/21 11:43:34;;;;;;;5.97;3.20;;;16.00;64.00;;;;;;5034694;28;20280;-60
2023/01/21 11:46:33;;;;;;;5.47;3.13;;;16.00;64.00;;;;;;5033900;28;20198;-63
2023/01/21 11:49:31;;;;;;;3.55;2.60;;;16.00;63.80;;;;;;5032147;28;20233;-62
2023/01/21 11:52:21;;;;;;;4.10;2.85;;;16.00;64.00;;;;;;5032284;28;20240;-64
2023/01/21 11:55:21;;;;;;;3.97;2.60;;;15.90;64.10;;;;;;5033836;28;20205;-61
2023/01/21 11:58:18;;;;;;;4.72;2.85;;;15.80;64.20;;;;;;5032474;28;20252;-62
2023/01/21 12:01:18;;;;;;;4.28;2.90;;;15.70;64.50;;;;;;5038097;28;20277;-62
2023/01/21 12:04:06;;;;;;;4.35;2.55;;;15.70;64.70;;;;;;5040365;28;20316;-62
2023/01/21 12:06:57;;;;;;;2.80;2.60;;;15.60;64.70;;;;;;5039428;28;20281;-62
2023/01/21 12:09:50;;;;;;;3.30;2.75;;;15.60;64.80;;;;;;5036806;28;20290;-62
2023/01/21 12:12:51;;;;;;;4.57;3.35;;;15.70;64.90;;;;;;5034320;28;20248;-64
2023/01/21 12:16:07;;;;;;;3.50;3.20;;;15.70;64.50;;;;;;5033961;28;20229;-62
2023/01/21 12:19:20;;;;;;;2.80;2.50;;;15.90;70.20;;;;;;5016899;28;20225;-61
2023/01/21 12:22:34;;;;;;;3.97;2.75;;;15.80;65.50;;;;;;5109998;27;20641;-61
2023/01/21 12:25:39;;;;;;;4.65;3.10;;;15.90;64.60;;;;;;5108653;28;20268;-62
2023/01/21 12:28:41;;;;;;;3.08;2.45;;;15.90;64.30;;;;;;5108665;28;20209;-62
2023/01/21 12:31:33;;;;;;;3.53;2.55;;;15.90;64.40;;;;;;5088188;28;20255;-61
2023/01/21 12:34:30;;;;;;;4.18;2.50;;;15.90;64.30;;;;;;5088010;28;20224;-61
2023/01/21 12:37:25;;;;;;;4.05;2.70;;;16.00;64.40;;;;;;5088782;28;20276;-62
2023/01/21 12:40:19;;;;;;;4.70;2.90;;;16.00;64.40;;;;;;5087799;28;20243;-59
2023/01/21 12:43:16;;;;;;;4.63;2.72;;;16.00;64.30;;;;;;5107562;28;20740;-60
2023/01/21 12:46:10;;;;;;;2.95;2.17;;;16.00;64.20;;;;;;5108811;28;20256;-60
2023/01/21 12:49:03;;;;;;;2.50;2.30;;;16.20;66.30;;;;;;5108491;28;20585;-62
2023/01/21 12:51:55;;;;;;;2.63;2.42;;;16.00;64.40;;;;;;5108271;28;20282;-59
2023/01/21 12:54:48;;;;;;;6.53;2.50;;;16.00;64.50;;;;;;5127751;28;20280;-62
2023/01/21 12:57:41;;;;;;;7.43;3.13;;;15.90;64.40;;;;;;5127388;28;20255;-61
2023/01/21 13:00:33;;;;;;;6.20;2.78;;;15.90;64.40;;;;;;5127955;28;20242;-60
2023/01/21 13:03:32;;;;;;;2.80;2.53;;;15.90;64.40;;;;;;5127115;28;20275;-60
2023/01/21 13:06:25;;;;;;;3.25;2.60;;;16.00;64.50;;;;;;5128623;28;20939;-62
2023/01/21 13:09:40;;;;;;;3.58;2.55;;;16.00;64.50;;;;;;5127027;28;20211;-60
2023/01/21 13:12:32;;;;;;;4.13;2.70;;;16.00;64.50;;;;;;5127940;28;20266;-62
2023/01/21 13:15:27;;;;;;;3.03;2.10;;;15.90;64.60;;;;;;5128307;28;20263;-62
2023/01/21 13:18:22;;;;;;;2.65;2.00;;;15.70;64.90;;;;;;5127831;28;20230;-61
2023/01/21 13:21:17;;;;;;;2.58;2.38;;;15.70;64.90;;;;;;5127932;28;20226;-61
2023/01/21 13:24:15;;;;;;;2.33;2.15;;;15.60;65.00;;;;;;5127184;28;20736;-59
2023/01/21 13:27:12;;;;;;;2.50;2.30;;;15.60;65.20;;;;;;5127957;28;20202;-61
2023/01/21 13:30:06;;;;;;;2.42;2.22;;;15.60;65.10;;;;;;5126976;28;20709;-59
2023/01/21 13:33:06;;;;;;;6.05;2.83;;;15.70;65.30;;;;;;5117472;28;20203;-58
2023/01/21 13:36:05;;;;;;;3.63;2.42;;;15.70;65.00;;;;;;5114058;28;20747;-61
2023/01/21 13:39:03;;;;;;;2.97;2.17;;;15.80;70.00;;;;;;5113215;28;20240;-64
2023/01/21 13:42:04;;;;;;;2.78;2.40;;;15.80;64.80;;;;;;5114069;28;20686;-62
2023/01/21 13:45:06;;;;;;;3.38;2.28;;;15.90;64.80;;;;;;5113638;28;20678;-59
2023/01/21 13:48:07;;;;;;;2.38;2.10;;;15.90;64.80;;;;;;5113183;28;20211;-59
2023/01/21 13:51:11;;;;;;;2.22;2.03;;;16.00;64.70;;;;;;5113397;28;20218;-63
2023/01/21 13:54:19;;;;;;;2.33;1.92;;;16.00;64.60;;;;;;5114131;28;20210;-60
2023/01/21 13:57:19;;;;;;;2.70;2.03;;;16.00;64.40;;;;;;5113949;28;20217;-60
2023/01/21 14:00:11;;;;;;;3.70;1.90;;;16.00;64.40;;;;;;5113288;28;20334;-63
2023/01/21 14:03:08;;;;;;;3.38;2.55;;;16.00;64.40;;;;;;5112963;28;20192;-59
2023/01/21 14:06:02;;;;;;;3.67;2.53;;;16.00;64.60;;;;;;5112676;28;20240;-59
2023/01/21 14:08:53;;;;;;;2.45;2.25;;;15.70;66.30;;;;;;5112694;28;20207;-61
2023/01/21 14:11:47;;;;;;;6.32;2.33;;;16.00;64.50;;;;;;5112616;28;20304;-60
2023/01/21 14:14:58;;;;;;;3.67;2.35;;;16.00;64.40;;;;;;5114370;28;20325;-59
2023/01/21 14:18:18;;;;;;;2.45;2.08;;;16.00;64.30;;;;;;5113160;28;20788;-61
2023/01/21 14:21:35;;;;;;;9.60;2.58;;;16.00;64.30;;;;;;5111993;28;20227;-62
2023/01/21 14:24:37;;;;;;;4.78;2.55;;;16.00;64.50;;;;;;5091835;28;20203;-64
2023/01/21 14:27:33;;;;;;;3.75;2.25;;;16.00;64.50;;;;;;5112196;28;20243;-62
2023/01/21 14:30:25;;;;;;;4.78;2.10;;;16.00;64.40;;;;;;5112721;28;20730;-63
2023/01/21 14:33:18;;;;;;;3.78;2.00;;;16.00;64.50;;;;;;5112994;28;20725;-62
2023/01/21 14:36:12;;;;;;;2.60;2.38;;;15.90;65.30;;;;;;5112444;28;20680;-59
2023/01/21 14:39:07;;;;;;;3.10;2.17;;;15.80;71.50;;;;;;5112734;28;20228;-60
2023/01/21 14:42:01;;;;;;;2.08;1.88;;;15.70;64.90;;;;;;5112636;28;20246;-58
2023/01/21 14:45:03;;;;;;;4.60;2.70;;;15.60;64.90;;;;;;5110971;28;20233;-60
2023/01/21 14:47:53;;;;;;;5.78;2.10;;;15.60;65.20;;;;;;5111949;28;20209;-60
2023/01/21 14:50:52;;;;;;;2.05;1.83;;;15.60;65.20;;;;;;5112455;28;20227;-59
2023/01/21 14:53:46;;;;;;;3.53;2.30;;;15.70;65.20;;;;;;5113044;28;20226;-59
2023/01/21 14:56:35;;;;;;;4.68;1.95;;;15.70;64.90;;;;;;5111572;28;20279;-61
2023/01/21 14:59:34;;;;;;;2.80;1.80;;;15.80;65.00;;;;;;5112209;28;20302;-59
2023/01/21 15:02:28;;;;;;;3.17;1.83;;;15.80;64.90;;;;;;5112140;28;20206;-61